sensor_id;sensor_type;location;lat;lon;timestamp;pressure;altitude;pressure_sealevel;temperature;humidity
82807;BME280;72563;44.816;20.484;2023-09-30T00:01:51;100926.56;;;19.83;54.87
82807;BME280;72563;44.816;20.484;2023-09-30T00:04:17;100924.22;;;19.85;54.66
82807;BME280;72563;44.816;20.484;2023-09-30T00:06:43;100924.41;;;19.96;54.40
82807;BME280;72563;44.816;20.484;2023-09-30T00:09:08;100919.50;;;19.89;54.44
82807;BME280;72563;44.816;20.484;2023-09-30T00:11:34;100920.28;;;19.70;54.52
82807;BME280;72563;44.816;20.484;2023-09-30T00:14:00;100936.09;;;19.82;54.39
82807;BME280;72563;44.816;20.484;2023-09-30T00:16:25;100923.53;;;19.92;53.19
82807;BME280;72563;44.816;20.484;2023-09-30T00:18:51;100914.78;;;19.93;53.25
82807;BME280;72563;44.816;20.484;2023-09-30T00:21:17;100915.28;;;19.79;54.14
82807;BME280;72563;44.816;20.484;2023-09-30T00:23:42;100912.00;;;19.93;53.25
82807;BME280;72563;44.816;20.484;2023-09-30T00:26:07;100914.50;;;19.79;53.47
82807;BME280;72563;44.816;20.484;2023-09-30T00:28:33;100916.25;;;19.87;53.19
82807;BME280;72563;44.816;20.484;2023-09-30T00:30:58;100914.94;;;19.81;53.01
82807;BME280;72563;44.816;20.484;2023-09-30T00:33:24;100922.88;;;19.79;53.86
82807;BME280;72563;44.816;20.484;2023-09-30T00:35:50;100920.53;;;19.81;53.75
82807;BME280;72563;44.816;20.484;2023-09-30T00:38:16;100927.97;;;19.58;54.42
82807;BME280;72563;44.816;20.484;2023-09-30T00:40:50;100919.56;;;19.23;56.00
82807;BME280;72563;44.816;20.484;2023-09-30T00:43:20;100922.44;;;19.42;56.57
82807;BME280;72563;44.816;20.484;2023-09-30T00:45:48;100928.84;;;19.12;58.33
82807;BME280;72563;44.816;20.484;2023-09-30T00:48:14;100930.22;;;18.43;63.14
82807;BME280;72563;44.816;20.484;2023-09-30T00:50:40;100929.75;;;18.84;61.82
82807;BME280;72563;44.816;20.484;2023-09-30T00:53:06;100925.50;;;18.90;61.57
82807;BME280;72563;44.816;20.484;2023-09-30T00:55:33;100924.97;;;19.00;61.48
82807;BME280;72563;44.816;20.484;2023-09-30T00:57:59;100935.94;;;18.78;60.47
82807;BME280;72563;44.816;20.484;2023-09-30T01:00:24;100935.59;;;18.95;60.08
82807;BME280;72563;44.816;20.484;2023-09-30T01:02:50;100936.88;;;18.97;59.60
82807;BME280;72563;44.816;20.484;2023-09-30T01:05:18;100930.91;;;19.15;58.66
82807;BME280;72563;44.816;20.484;2023-09-30T01:07:44;100935.69;;;18.98;58.79
82807;BME280;72563;44.816;20.484;2023-09-30T01:10:09;100941.59;;;18.66;60.14
82807;BME280;72563;44.816;20.484;2023-09-30T01:12:35;100950.94;;;18.73;60.01
82807;BME280;72563;44.816;20.484;2023-09-30T01:15:00;100943.03;;;18.75;59.93
82807;BME280;72563;44.816;20.484;2023-09-30T01:17:26;100953.13;;;18.80;59.74
82807;BME280;72563;44.816;20.484;2023-09-30T01:19:54;100950.34;;;18.80;59.81
82807;BME280;72563;44.816;20.484;2023-09-30T01:22:19;100945.50;;;18.77;60.10
82807;BME280;72563;44.816;20.484;2023-09-30T01:24:45;100946.66;;;18.76;60.52
82807;BME280;72563;44.816;20.484;2023-09-30T01:27:13;100953.13;;;18.80;59.92
82807;BME280;72563;44.816;20.484;2023-09-30T01:29:38;100956.34;;;18.66;60.48
82807;BME280;72563;44.816;20.484;2023-09-30T01:32:04;100954.94;;;18.88;59.18
82807;BME280;72563;44.816;20.484;2023-09-30T01:34:34;100950.53;;;18.87;59.44
82807;BME280;72563;44.816;20.484;2023-09-30T01:37:01;100956.81;;;18.84;59.58
82807;BME280;72563;44.816;20.484;2023-09-30T01:39:26;100958.25;;;18.78;59.83
82807;BME280;72563;44.816;20.484;2023-09-30T01:41:52;100954.13;;;18.87;59.49
82807;BME280;72563;44.816;20.484;2023-09-30T01:44:17;100957.47;;;18.93;59.52
82807;BME280;72563;44.816;20.484;2023-09-30T01:46:42;100952.25;;;18.91;59.31
82807;BME280;72563;44.816;20.484;2023-09-30T01:49:08;100948.81;;;18.82;59.59
82807;BME280;72563;44.816;20.484;2023-09-30T01:51:34;100943.84;;;18.76;59.79
82807;BME280;72563;44.816;20.484;2023-09-30T01:53:59;100944.06;;;18.83;59.80
82807;BME280;72563;44.816;20.484;2023-09-30T01:56:25;100943.94;;;18.79;59.83
82807;BME280;72563;44.816;20.484;2023-09-30T01:58:50;100937.56;;;18.79;60.06
82807;BME280;72563;44.816;20.484;2023-09-30T02:01:16;100944.69;;;18.76;60.07
82807;BME280;72563;44.816;20.484;2023-09-30T02:03:41;100940.97;;;18.72;59.91
82807;BME280;72563;44.816;20.484;2023-09-30T02:06:08;100943.13;;;18.63;60.15
82807;BME280;72563;44.816;20.484;2023-09-30T02:08:33;100942.66;;;18.61;60.25
82807;BME280;72563;44.816;20.484;2023-09-30T02:11:01;100941.59;;;18.50;60.53
82807;BME280;72563;44.816;20.484;2023-09-30T02:13:27;100926.00;;;18.49;60.46
82807;BME280;72563;44.816;20.484;2023-09-30T02:15:53;100934.78;;;18.36;60.96
82807;BME280;72563;44.816;20.484;2023-09-30T02:18:21;100932.81;;;18.36;60.79
82807;BME280;72563;44.816;20.484;2023-09-30T02:20:46;100931.78;;;18.29;60.96
82807;BME280;72563;44.816;20.484;2023-09-30T02:23:12;100937.06;;;18.46;60.43
82807;BME280;72563;44.816;20.484;2023-09-30T02:25:38;100932.31;;;18.46;60.09
82807;BME280;72563;44.816;20.484;2023-09-30T02:28:06;100934.03;;;18.51;59.99
82807;BME280;72563;44.816;20.484;2023-09-30T02:30:32;100935.09;;;18.46;59.84
82807;BME280;72563;44.816;20.484;2023-09-30T02:32:58;100939.94;;;18.49;59.51
82807;BME280;72563;44.816;20.484;2023-09-30T02:35:23;100937.97;;;18.50;59.52
82807;BME280;72563;44.816;20.484;2023-09-30T02:37:49;100931.94;;;18.48;59.63
82807;BME280;72563;44.816;20.484;2023-09-30T02:40:15;100933.25;;;18.38;59.77
82807;BME280;72563;44.816;20.484;2023-09-30T02:42:43;100932.13;;;18.27;60.09
82807;BME280;72563;44.816;20.484;2023-09-30T02:45:10;100930.06;;;18.24;60.08
82807;BME280;72563;44.816;20.484;2023-09-30T02:47:35;100934.00;;;18.23;60.32
82807;BME280;72563;44.816;20.484;2023-09-30T02:50:02;100926.19;;;18.29;60.08
82807;BME280;72563;44.816;20.484;2023-09-30T02:52:30;100927.09;;;18.33;60.01
82807;BME280;72563;44.816;20.484;2023-09-30T02:54:56;100932.31;;;18.46;59.57
82807;BME280;72563;44.816;20.484;2023-09-30T02:57:25;100928.78;;;18.49;59.17
82807;BME280;72563;44.816;20.484;2023-09-30T02:59:50;100933.31;;;18.54;58.73
82807;BME280;72563;44.816;20.484;2023-09-30T03:02:17;100936.00;;;18.50;58.93
82807;BME280;72563;44.816;20.484;2023-09-30T03:04:44;100926.00;;;18.49;58.88
82807;BME280;72563;44.816;20.484;2023-09-30T03:07:10;100925.47;;;18.44;59.07
82807;BME280;72563;44.816;20.484;2023-09-30T03:09:35;100930.09;;;18.40;59.34
82807;BME280;72563;44.816;20.484;2023-09-30T03:12:04;100933.25;;;18.38;59.42
82807;BME280;72563;44.816;20.484;2023-09-30T03:14:30;100926.94;;;18.41;59.27
82807;BME280;72563;44.816;20.484;2023-09-30T03:16:57;100918.59;;;18.41;59.39
82807;BME280;72563;44.816;20.484;2023-09-30T03:19:22;100928.59;;;18.42;59.28
82807;BME280;72563;44.816;20.484;2023-09-30T03:21:48;100923.72;;;18.39;59.16
82807;BME280;72563;44.816;20.484;2023-09-30T03:24:14;100924.16;;;18.41;59.29
82807;BME280;72563;44.816;20.484;2023-09-30T03:26:39;100927.78;;;18.42;59.22
82807;BME280;72563;44.816;20.484;2023-09-30T03:29:07;100922.56;;;18.40;59.12
82807;BME280;72563;44.816;20.484;2023-09-30T03:31:34;100919.31;;;18.38;59.14
82807;BME280;72563;44.816;20.484;2023-09-30T03:34:00;100914.44;;;18.35;59.28
82807;BME280;72563;44.816;20.484;2023-09-30T03:36:26;100915.25;;;18.36;58.89
82807;BME280;72563;44.816;20.484;2023-09-30T03:38:52;100917.72;;;18.09;60.13
82807;BME280;72563;44.816;20.484;2023-09-30T03:41:24;100915.22;;;18.20;59.68
82807;BME280;72563;44.816;20.484;2023-09-30T03:43:50;100917.28;;;18.23;59.50
82807;BME280;72563;44.816;20.484;2023-09-30T03:46:16;100924.38;;;18.20;59.56
82807;BME280;72563;44.816;20.484;2023-09-30T03:48:42;100923.69;;;18.23;59.28
82807;BME280;72563;44.816;20.484;2023-09-30T03:51:12;100924.59;;;18.28;59.15
82807;BME280;72563;44.816;20.484;2023-09-30T03:53:41;100917.84;;;18.29;59.01
82807;BME280;72563;44.816;20.484;2023-09-30T03:56:07;100918.56;;;18.26;58.68
82807;BME280;72563;44.816;20.484;2023-09-30T03:58:33;100929.84;;;18.17;58.86
82807;BME280;72563;44.816;20.484;2023-09-30T04:00:59;100929.50;;;18.18;58.77
82807;BME280;72563;44.816;20.484;2023-09-30T04:03:26;100926.63;;;18.15;59.14
82807;BME280;72563;44.816;20.484;2023-09-30T04:05:53;100914.31;;;18.16;59.15
82807;BME280;72563;44.816;20.484;2023-09-30T04:08:18;100924.66;;;18.15;59.02
82807;BME280;72563;44.816;20.484;2023-09-30T04:10:44;100918.97;;;18.12;58.97
82807;BME280;72563;44.816;20.484;2023-09-30T04:13:10;100926.16;;;18.13;58.94
82807;BME280;72563;44.816;20.484;2023-09-30T04:15:37;100926.06;;;18.09;59.25
82807;BME280;72563;44.816;20.484;2023-09-30T04:18:03;100930.00;;;18.08;58.93
82807;BME280;72563;44.816;20.484;2023-09-30T04:20:31;100934.56;;;18.01;59.43
82807;BME280;72563;44.816;20.484;2023-09-30T04:22:57;100943.53;;;17.94;59.74
82807;BME280;72563;44.816;20.484;2023-09-30T04:25:23;100938.69;;;17.91;59.82
82807;BME280;72563;44.816;20.484;2023-09-30T04:27:50;100940.75;;;17.94;59.88
82807;BME280;72563;44.816;20.484;2023-09-30T04:30:19;100948.72;;;17.96;59.86
82807;BME280;72563;44.816;20.484;2023-09-30T04:32:45;100950.72;;;17.95;59.85
82807;BME280;72563;44.816;20.484;2023-09-30T04:35:11;100953.84;;;17.94;59.92
82807;BME280;72563;44.816;20.484;2023-09-30T04:37:37;100951.53;;;17.96;60.10
82807;BME280;72563;44.816;20.484;2023-09-30T04:40:07;100952.25;;;17.93;60.08
82807;BME280;72563;44.816;20.484;2023-09-30T04:42:43;100957.81;;;17.93;60.20
82807;BME280;72563;44.816;20.484;2023-09-30T04:45:12;100964.19;;;17.93;60.36
82807;BME280;72563;44.816;20.484;2023-09-30T04:47:39;100972.44;;;17.90;60.85
82807;BME280;72563;44.816;20.484;2023-09-30T04:50:08;100970.00;;;17.88;60.59
82807;BME280;72563;44.816;20.484;2023-09-30T04:52:34;100971.03;;;17.96;60.33
82807;BME280;72563;44.816;20.484;2023-09-30T04:55:00;100972.44;;;17.90;60.49
82807;BME280;72563;44.816;20.484;2023-09-30T04:57:26;100980.56;;;17.95;60.38
82807;BME280;72563;44.816;20.484;2023-09-30T04:59:51;100981.50;;;17.87;60.47
82807;BME280;72563;44.816;20.484;2023-09-30T05:02:17;100984.28;;;17.87;60.79
82807;BME280;72563;44.816;20.484;2023-09-30T05:04:42;100980.00;;;17.89;60.61
82807;BME280;72563;44.816;20.484;2023-09-30T05:07:08;100982.41;;;17.91;60.74
82807;BME280;72563;44.816;20.484;2023-09-30T05:09:34;100994.13;;;17.96;60.45
82807;BME280;72563;44.816;20.484;2023-09-30T05:11:59;100991.69;;;17.95;60.37
82807;BME280;72563;44.816;20.484;2023-09-30T05:14:25;100991.78;;;17.98;60.30
82807;BME280;72563;44.816;20.484;2023-09-30T05:16:50;100990.88;;;17.94;60.79
82807;BME280;72563;44.816;20.484;2023-09-30T05:19:16;100995.75;;;17.97;60.43
82807;BME280;72563;44.816;20.484;2023-09-30T05:21:41;101003.84;;;18.02;60.27
82807;BME280;72563;44.816;20.484;2023-09-30T05:24:08;100995.63;;;18.06;60.07
82807;BME280;72563;44.816;20.484;2023-09-30T05:26:33;100996.41;;;18.06;60.00
82807;BME280;72563;44.816;20.484;2023-09-30T05:28:59;100997.22;;;18.07;59.97
82807;BME280;72563;44.816;20.484;2023-09-30T05:31:25;100994.00;;;18.05;59.98
82807;BME280;72563;44.816;20.484;2023-09-30T05:33:50;100999.31;;;18.10;59.88
82807;BME280;72563;44.816;20.484;2023-09-30T05:36:16;101002.34;;;18.05;60.20
82807;BME280;72563;44.816;20.484;2023-09-30T05:38:41;100997.69;;;18.09;59.76
82807;BME280;72563;44.816;20.484;2023-09-30T05:41:07;101001.50;;;18.16;59.55
82807;BME280;72563;44.816;20.484;2023-09-30T05:43:33;101010.31;;;18.18;59.62
82807;BME280;72563;44.816;20.484;2023-09-30T05:45:59;101001.34;;;18.25;58.83
82807;BME280;72563;44.816;20.484;2023-09-30T05:48:24;101003.53;;;18.32;58.83
82807;BME280;72563;44.816;20.484;2023-09-30T05:50:50;101009.13;;;18.32;58.48
82807;BME280;72563;44.816;20.484;2023-09-30T05:53:15;101015.00;;;18.42;58.24
82807;BME280;72563;44.816;20.484;2023-09-30T05:55:41;101009.97;;;18.60;57.89
82807;BME280;72563;44.816;20.484;2023-09-30T05:58:12;101017.94;;;22.77;46.15
82807;BME280;72563;44.816;20.484;2023-09-30T06:00:39;101013.81;;;24.85;40.19
82807;BME280;72563;44.816;20.484;2023-09-30T06:03:05;101017.94;;;25.22;39.14
82807;BME280;72563;44.816;20.484;2023-09-30T06:05:33;101025.00;;;26.61;36.48
82807;BME280;72563;44.816;20.484;2023-09-30T06:08:00;101026.22;;;27.25;35.05
82807;BME280;72563;44.816;20.484;2023-09-30T06:10:28;101026.53;;;27.89;33.90
82807;BME280;72563;44.816;20.484;2023-09-30T06:12:54;101020.28;;;27.09;34.73
82807;BME280;72563;44.816;20.484;2023-09-30T06:15:20;101030.22;;;26.62;35.63
82807;BME280;72563;44.816;20.484;2023-09-30T06:18:17;101032.22;;;23.89;41.01
82807;BME280;72563;44.816;20.484;2023-09-30T06:20:48;101034.78;;;23.17;42.88
82807;BME280;72563;44.816;20.484;2023-09-30T06:23:26;101034.34;;;23.12;43.47
82807;BME280;72563;44.816;20.484;2023-09-30T06:25:59;101035.75;;;22.91;43.95
82807;BME280;72563;44.816;20.484;2023-09-30T06:28:27;101032.44;;;23.19;43.63
82807;BME280;72563;44.816;20.484;2023-09-30T06:30:53;101039.06;;;23.41;42.95
82807;BME280;72563;44.816;20.484;2023-09-30T06:33:18;101041.44;;;22.98;43.40
82807;BME280;72563;44.816;20.484;2023-09-30T06:35:44;101047.59;;;23.51;42.75
82807;BME280;72563;44.816;20.484;2023-09-30T06:38:19;101046.84;;;23.58;42.67
82807;BME280;72563;44.816;20.484;2023-09-30T06:40:45;101052.41;;;23.51;42.50
82807;BME280;72563;44.816;20.484;2023-09-30T06:43:15;101050.03;;;23.56;42.75
82807;BME280;72563;44.816;20.484;2023-09-30T06:45:44;101052.41;;;24.02;41.77
82807;BME280;72563;44.816;20.484;2023-09-30T06:48:10;101057.22;;;24.01;41.28
82807;BME280;72563;44.816;20.484;2023-09-30T06:50:44;101053.78;;;23.71;42.19
82807;BME280;72563;44.816;20.484;2023-09-30T06:53:10;101058.34;;;23.93;42.21
82807;BME280;72563;44.816;20.484;2023-09-30T06:55:40;101061.25;;;24.00;41.54
82807;BME280;72563;44.816;20.484;2023-09-30T06:58:06;101058.00;;;24.66;40.34
82807;BME280;72563;44.816;20.484;2023-09-30T07:00:36;101058.56;;;25.11;39.77
82807;BME280;72563;44.816;20.484;2023-09-30T07:03:02;101054.56;;;25.29;39.25
82807;BME280;72563;44.816;20.484;2023-09-30T07:05:29;101054.19;;;25.70;38.54
82807;BME280;72563;44.816;20.484;2023-09-30T07:07:55;101050.97;;;25.85;37.97
82807;BME280;72563;44.816;20.484;2023-09-30T07:10:20;101058.22;;;26.07;37.71
82807;BME280;72563;44.816;20.484;2023-09-30T07:12:46;101063.91;;;25.76;38.11
82807;BME280;72563;44.816;20.484;2023-09-30T07:15:13;101062.25;;;26.20;37.32
82807;BME280;72563;44.816;20.484;2023-09-30T07:17:41;101065.06;;;26.24;36.69
82807;BME280;72563;44.816;20.484;2023-09-30T07:20:07;101059.66;;;26.65;38.06
82807;BME280;72563;44.816;20.484;2023-09-30T07:22:35;101059.84;;;27.16;36.47
82807;BME280;72563;44.816;20.484;2023-09-30T07:25:00;101059.13;;;27.60;35.87
82807;BME280;72563;44.816;20.484;2023-09-30T07:27:26;101054.06;;;27.85;35.23
82807;BME280;72563;44.816;20.484;2023-09-30T07:29:51;101061.34;;;27.82;34.75
82807;BME280;72563;44.816;20.484;2023-09-30T07:32:17;101061.78;;;27.81;34.86
82807;BME280;72563;44.816;20.484;2023-09-30T07:34:42;101070.66;;;27.83;35.26
82807;BME280;72563;44.816;20.484;2023-09-30T07:37:09;101073.31;;;28.04;34.81
82807;BME280;72563;44.816;20.484;2023-09-30T07:39:35;101073.13;;;28.22;34.25
82807;BME280;72563;44.816;20.484;2023-09-30T07:42:01;101074.13;;;28.42;34.42
82807;BME280;72563;44.816;20.484;2023-09-30T07:44:27;101077.34;;;28.44;34.20
82807;BME280;72563;44.816;20.484;2023-09-30T07:46:53;101077.25;;;27.66;35.61
82807;BME280;72563;44.816;20.484;2023-09-30T07:49:18;101086.44;;;28.25;35.12
82807;BME280;72563;44.816;20.484;2023-09-30T07:51:44;101077.22;;;28.54;34.56
82807;BME280;72563;44.816;20.484;2023-09-30T07:54:11;101078.91;;;28.48;34.89
82807;BME280;72563;44.816;20.484;2023-09-30T07:56:37;101073.84;;;28.66;34.64
82807;BME280;72563;44.816;20.484;2023-09-30T07:59:02;101071.53;;;28.88;33.66
82807;BME280;72563;44.816;20.484;2023-09-30T08:01:28;101077.81;;;29.03;33.83
82807;BME280;72563;44.816;20.484;2023-09-30T08:03:55;101073.19;;;28.86;34.44
82807;BME280;72563;44.816;20.484;2023-09-30T08:06:21;101073.81;;;29.00;34.73
82807;BME280;72563;44.816;20.484;2023-09-30T08:08:46;101078.53;;;29.10;33.88
82807;BME280;72563;44.816;20.484;2023-09-30T08:11:12;101085.50;;;29.32;34.22
82807;BME280;72563;44.816;20.484;2023-09-30T08:13:38;101084.91;;;29.44;34.03
82807;BME280;72563;44.816;20.484;2023-09-30T08:16:04;101088.13;;;29.46;33.39
82807;BME280;72563;44.816;20.484;2023-09-30T08:18:29;101099.75;;;29.56;33.53
82807;BME280;72563;44.816;20.484;2023-09-30T08:20:55;101089.09;;;29.63;33.24
82807;BME280;72563;44.816;20.484;2023-09-30T08:23:20;101095.06;;;29.45;33.10
82807;BME280;72563;44.816;20.484;2023-09-30T08:25:46;101097.06;;;29.45;33.43
82807;BME280;72563;44.816;20.484;2023-09-30T08:28:12;101101.94;;;29.18;33.40
82807;BME280;72563;44.816;20.484;2023-09-30T08:30:38;101097.59;;;29.36;33.17
82807;BME280;72563;44.816;20.484;2023-09-30T08:33:04;101098.25;;;29.47;33.41
82807;BME280;72563;44.816;20.484;2023-09-30T08:35:30;101096.91;;;29.56;33.11
82807;BME280;72563;44.816;20.484;2023-09-30T08:37:57;101098.13;;;29.55;34.03
82807;BME280;72563;44.816;20.484;2023-09-30T08:40:23;101101.91;;;29.48;33.78
82807;BME280;72563;44.816;20.484;2023-09-30T08:42:51;101100.94;;;29.31;34.57
82807;BME280;72563;44.816;20.484;2023-09-30T08:45:17;101098.69;;;29.19;34.37
82807;BME280;72563;44.816;20.484;2023-09-30T08:47:43;101101.91;;;29.48;33.97
82807;BME280;72563;44.816;20.484;2023-09-30T08:50:10;101095.72;;;29.53;34.51
82807;BME280;72563;44.816;20.484;2023-09-30T08:52:38;101101.84;;;29.52;34.28
82807;BME280;72563;44.816;20.484;2023-09-30T08:55:04;101105.88;;;29.81;34.32
82807;BME280;72563;44.816;20.484;2023-09-30T08:57:31;101105.94;;;30.00;33.67
82807;BME280;72563;44.816;20.484;2023-09-30T08:59:58;101097.84;;;29.99;32.89
82807;BME280;72563;44.816;20.484;2023-09-30T09:02:23;101094.88;;;29.83;33.98
82807;BME280;72563;44.816;20.484;2023-09-30T09:04:49;101091.31;;;29.79;33.92
82807;BME280;72563;44.816;20.484;2023-09-30T09:07:15;101095.41;;;29.21;34.51
82807;BME280;72563;44.816;20.484;2023-09-30T09:09:40;101091.78;;;29.74;33.97
82807;BME280;72563;44.816;20.484;2023-09-30T09:12:17;101093.63;;;29.84;33.13
82807;BME280;72563;44.816;20.484;2023-09-30T09:14:43;101087.81;;;29.68;34.84
82807;BME280;72563;44.816;20.484;2023-09-30T09:17:10;101082.47;;;29.96;34.12
82807;BME280;72563;44.816;20.484;2023-09-30T09:19:36;101089.63;;;30.04;33.35
82807;BME280;72563;44.816;20.484;2023-09-30T09:22:03;101082.75;;;30.25;32.69
82807;BME280;72563;44.816;20.484;2023-09-30T09:24:37;101079.44;;;30.30;33.39
82807;BME280;72563;44.816;20.484;2023-09-30T09:27:08;101086.53;;;30.18;32.74
82807;BME280;72563;44.816;20.484;2023-09-30T09:29:37;101082.88;;;30.41;32.90
82807;BME280;72563;44.816;20.484;2023-09-30T09:32:13;101073.34;;;30.32;32.62
82807;BME280;72563;44.816;20.484;2023-09-30T09:34:40;101070.72;;;30.17;33.22
82807;BME280;72563;44.816;20.484;2023-09-30T09:37:19;101061.97;;;30.08;33.29
82807;BME280;72563;44.816;20.484;2023-09-30T09:39:52;101071.75;;;30.27;32.07
82807;BME280;72563;44.816;20.484;2023-09-30T09:42:28;101071.09;;;30.62;31.55
82807;BME280;72563;44.816;20.484;2023-09-30T09:44:56;101071.59;;;30.57;30.27
82807;BME280;72563;44.816;20.484;2023-09-30T09:47:22;101071.06;;;30.43;31.58
82807;BME280;72563;44.816;20.484;2023-09-30T09:49:50;101073.41;;;30.24;32.45
82807;BME280;72563;44.816;20.484;2023-09-30T09:52:17;101064.00;;;30.70;31.28
82807;BME280;72563;44.816;20.484;2023-09-30T09:54:44;101061.53;;;30.72;31.11
82807;BME280;72563;44.816;20.484;2023-09-30T09:57:11;101061.25;;;30.47;31.81
82807;BME280;72563;44.816;20.484;2023-09-30T09:59:38;101053.50;;;30.67;31.42
82807;BME280;72563;44.816;20.484;2023-09-30T10:02:10;101052.00;;;30.20;32.36
82807;BME280;72563;44.816;20.484;2023-09-30T10:04:37;101057.34;;;29.95;30.86
82807;BME280;72563;44.816;20.484;2023-09-30T10:07:04;101060.69;;;29.40;32.14
82807;BME280;72563;44.816;20.484;2023-09-30T10:09:34;101050.84;;;30.17;32.00
82807;BME280;72563;44.816;20.484;2023-09-30T10:12:03;101040.38;;;30.34;31.61
82807;BME280;72563;44.816;20.484;2023-09-30T10:14:33;101044.25;;;30.63;30.85
82807;BME280;72563;44.816;20.484;2023-09-30T10:16:59;101043.22;;;30.73;31.27
82807;BME280;72563;44.816;20.484;2023-09-30T10:19:25;101034.25;;;30.75;30.51
82807;BME280;72563;44.816;20.484;2023-09-30T10:24:57;101040.34;;;30.38;30.51
82807;BME280;72563;44.816;20.484;2023-09-30T10:35:21;101035.22;;;30.88;30.14
82807;BME280;72563;44.816;20.484;2023-09-30T10:37:47;101032.69;;;30.54;29.80
82807;BME280;72563;44.816;20.484;2023-09-30T10:40:27;101026.94;;;30.15;30.74
82807;BME280;72563;44.816;20.484;2023-09-30T10:42:53;101016.59;;;30.83;30.24
82807;BME280;72563;44.816;20.484;2023-09-30T10:53:17;101010.78;;;31.42;28.79
82807;BME280;72563;44.816;20.484;2023-09-30T10:55:45;101004.22;;;31.09;28.79
82807;BME280;72563;44.816;20.484;2023-09-30T10:58:12;101006.63;;;30.75;29.68
82807;BME280;72563;44.816;20.484;2023-09-30T11:00:39;100995.78;;;31.06;29.40
82807;BME280;72563;44.816;20.484;2023-09-30T11:03:21;101002.56;;;31.12;28.87
82807;BME280;72563;44.816;20.484;2023-09-30T11:05:48;101003.06;;;30.91;28.36
82807;BME280;72563;44.816;20.484;2023-09-30T11:08:15;101000.50;;;31.13;29.02
82807;BME280;72563;44.816;20.484;2023-09-30T11:10:51;100990.16;;;30.86;29.01
82807;BME280;72563;44.816;20.484;2023-09-30T11:13:18;100999.88;;;30.50;29.86
82807;BME280;72563;44.816;20.484;2023-09-30T11:15:44;100990.47;;;30.53;29.15
82807;BME280;72563;44.816;20.484;2023-09-30T11:20:40;100978.38;;;30.49;28.93
82807;BME280;72563;44.816;20.484;2023-09-30T11:23:06;100982.88;;;30.07;29.84
82807;BME280;72563;44.816;20.484;2023-09-30T11:25:36;100972.34;;;30.07;29.67
82807;BME280;72563;44.816;20.484;2023-09-30T11:28:15;100978.91;;;30.44;29.13
82807;BME280;72563;44.816;20.484;2023-09-30T11:30:57;100973.06;;;30.51;28.83
82807;BME280;72563;44.816;20.484;2023-09-30T11:33:24;100973.56;;;30.65;28.73
82807;BME280;72563;44.816;20.484;2023-09-30T11:36:01;100969.56;;;30.98;28.29
82807;BME280;72563;44.816;20.484;2023-09-30T11:38:28;100965.19;;;30.94;28.32
82807;BME280;72563;44.816;20.484;2023-09-30T11:41:00;100960.22;;;30.98;27.86
82807;BME280;72563;44.816;20.484;2023-09-30T11:43:28;100955.94;;;30.90;28.67
82807;BME280;72563;44.816;20.484;2023-09-30T11:46:15;100961.41;;;31.33;27.27
82807;BME280;72563;44.816;20.484;2023-09-30T11:48:59;100955.00;;;31.13;27.64
82807;BME280;72563;44.816;20.484;2023-09-30T11:51:26;100959.16;;;31.56;27.22
82807;BME280;72563;44.816;20.484;2023-09-30T11:53:53;100953.94;;;29.49;29.19
82807;BME280;72563;44.816;20.484;2023-09-30T11:56:20;100951.72;;;30.43;28.52
82807;BME280;72563;44.816;20.484;2023-09-30T11:58:45;100949.63;;;30.07;28.09
82807;BME280;72563;44.816;20.484;2023-09-30T12:01:15;100950.53;;;30.95;27.85
82807;BME280;72563;44.816;20.484;2023-09-30T12:03:41;100944.00;;;30.43;27.71
82807;BME280;72563;44.816;20.484;2023-09-30T12:06:07;100940.28;;;30.46;27.68
82807;BME280;72563;44.816;20.484;2023-09-30T12:08:36;100944.78;;;30.24;26.85
82807;BME280;72563;44.816;20.484;2023-09-30T12:11:03;100939.84;;;30.08;27.02
82807;BME280;72563;44.816;20.484;2023-09-30T12:13:29;100938.38;;;30.59;27.43
82807;BME280;72563;44.816;20.484;2023-09-30T12:15:54;100939.69;;;30.90;27.13
82807;BME280;72563;44.816;20.484;2023-09-30T12:18:20;100931.50;;;30.57;26.79
82807;BME280;72563;44.816;20.484;2023-09-30T12:20:52;100927.81;;;30.40;26.92
82807;BME280;72563;44.816;20.484;2023-09-30T12:23:18;100929.91;;;29.77;26.38
82807;BME280;72563;44.816;20.484;2023-09-30T12:25:44;100925.06;;;29.97;24.28
82807;BME280;72563;44.816;20.484;2023-09-30T12:28:09;100922.59;;;30.39;25.24
82807;BME280;72563;44.816;20.484;2023-09-30T12:30:35;100924.22;;;30.91;24.80
82807;BME280;72563;44.816;20.484;2023-09-30T12:33:01;100918.47;;;31.11;24.07
82807;BME280;72563;44.816;20.484;2023-09-30T12:35:27;100919.09;;;31.02;23.54
82807;BME280;72563;44.816;20.484;2023-09-30T12:37:52;100909.22;;;30.91;23.62
82807;BME280;72563;44.816;20.484;2023-09-30T12:40:18;100902.78;;;30.87;22.31
82807;BME280;72563;44.816;20.484;2023-09-30T12:42:44;100903.72;;;30.28;23.75
82807;BME280;72563;44.816;20.484;2023-09-30T12:45:10;100901.13;;;30.89;23.64
82807;BME280;72563;44.816;20.484;2023-09-30T12:47:36;100901.22;;;31.02;23.53
82807;BME280;72563;44.816;20.484;2023-09-30T12:50:02;100899.34;;;31.12;23.67
82807;BME280;72563;44.816;20.484;2023-09-30T12:52:28;100890.09;;;30.91;24.33
82807;BME280;72563;44.816;20.484;2023-09-30T12:54:55;100890.69;;;29.92;24.95
82807;BME280;72563;44.816;20.484;2023-09-30T12:57:21;100891.44;;;30.15;25.03
82807;BME280;72563;44.816;20.484;2023-09-30T12:59:47;100873.47;;;29.83;26.60
82807;BME280;72563;44.816;20.484;2023-09-30T13:02:14;100881.38;;;30.11;25.98